sensor_id;sensor_type;location;lat;lon;timestamp;P1;durP1;ratioP1;P2;durP2;ratioP2
13580;SDS011;6861;46.170;7.222;2023-02-07T00:01:20;7.05;;;4.88;;
13580;SDS011;6861;46.170;7.222;2023-02-07T00:03:49;7.85;;;5.45;;
13580;SDS011;6861;46.170;7.222;2023-02-07T00:06:18;6.40;;;4.53;;
13580;SDS011;6861;46.170;7.222;2023-02-07T00:08:48;6.90;;;4.47;;
13580;SDS011;6861;46.170;7.222;2023-02-07T00:11:18;6.18;;;4.43;;
13580;SDS011;6861;46.170;7.222;2023-02-07T00:13:49;6.10;;;4.60;;
13580;SDS011;6861;46.170;7.222;2023-02-07T00:16:18;6.07;;;4.68;;
13580;SDS011;6861;46.170;7.222;2023-02-07T00:18:47;6.60;;;4.78;;
13580;SDS011;6861;46.170;7.222;2023-02-07T00:21:18;9.07;;;5.13;;
13580;SDS011;6861;46.170;7.222;2023-02-07T00:23:48;7.63;;;4.75;;
13580;SDS011;6861;46.170;7.222;2023-02-07T00:26:19;5.78;;;4.30;;
13580;SDS011;6861;46.170;7.222;2023-02-07T00:28:49;5.90;;;4.65;;
13580;SDS011;6861;46.170;7.222;2023-02-07T00:31:19;6.65;;;5.07;;
13580;SDS011;6861;46.170;7.222;2023-02-07T00:33:49;8.50;;;5.68;;
13580;SDS011;6861;46.170;7.222;2023-02-07T00:36:19;6.72;;;5.10;;
13580;SDS011;6861;46.170;7.222;2023-02-07T00:38:49;8.82;;;5.70;;
13580;SDS011;6861;46.170;7.222;2023-02-07T00:41:19;6.45;;;4.43;;
13580;SDS011;6861;46.170;7.222;2023-02-07T00:43:47;7.95;;;4.78;;
13580;SDS011;6861;46.170;7.222;2023-02-07T00:46:15;8.00;;;5.07;;
13580;SDS011;6861;46.170;7.222;2023-02-07T00:48:43;6.72;;;5.18;;
13580;SDS011;6861;46.170;7.222;2023-02-07T00:51:12;7.93;;;6.07;;
13580;SDS011;6861;46.170;7.222;2023-02-07T00:53:40;6.72;;;5.22;;
13580;SDS011;6861;46.170;7.222;2023-02-07T00:56:09;7.97;;;5.50;;
13580;SDS011;6861;46.170;7.222;2023-02-07T00:58:40;6.63;;;5.15;;
13580;SDS011;6861;46.170;7.222;2023-02-07T01:01:08;8.20;;;6.00;;
13580;SDS011;6861;46.170;7.222;2023-02-07T01:03:36;6.65;;;5.93;;
13580;SDS011;6861;46.170;7.222;2023-02-07T01:06:05;8.13;;;6.20;;
13580;SDS011;6861;46.170;7.222;2023-02-07T01:08:34;8.13;;;5.95;;
13580;SDS011;6861;46.170;7.222;2023-02-07T01:11:03;10.18;;;5.60;;
13580;SDS011;6861;46.170;7.222;2023-02-07T01:13:33;7.82;;;5.45;;
13580;SDS011;6861;46.170;7.222;2023-02-07T01:16:03;8.40;;;6.20;;
13580;SDS011;6861;46.170;7.222;2023-02-07T01:18:31;7.82;;;5.55;;
13580;SDS011;6861;46.170;7.222;2023-02-07T01:20:59;7.93;;;5.63;;
13580;SDS011;6861;46.170;7.222;2023-02-07T01:23:27;7.43;;;5.47;;
13580;SDS011;6861;46.170;7.222;2023-02-07T01:25:55;9.32;;;5.75;;
13580;SDS011;6861;46.170;7.222;2023-02-07T01:28:23;21.20;;;12.23;;
13580;SDS011;6861;46.170;7.222;2023-02-07T01:30:51;13.40;;;7.53;;
13580;SDS011;6861;46.170;7.222;2023-02-07T01:33:21;16.05;;;9.75;;
13580;SDS011;6861;46.170;7.222;2023-02-07T01:35:49;9.32;;;6.40;;
13580;SDS011;6861;46.170;7.222;2023-02-07T01:38:17;9.77;;;7.30;;
13580;SDS011;6861;46.170;7.222;2023-02-07T01:40:45;8.93;;;6.40;;
13580;SDS011;6861;46.170;7.222;2023-02-07T01:43:14;17.58;;;11.13;;
13580;SDS011;6861;46.170;7.222;2023-02-07T01:45:44;9.43;;;6.55;;
13580;SDS011;6861;46.170;7.222;2023-02-07T01:48:12;9.07;;;6.13;;
13580;SDS011;6861;46.170;7.222;2023-02-07T01:50:45;8.25;;;6.57;;
13580;SDS011;6861;46.170;7.222;2023-02-07T01:53:16;11.50;;;6.93;;
13580;SDS011;6861;46.170;7.222;2023-02-07T01:55:47;9.13;;;6.53;;
13580;SDS011;6861;46.170;7.222;2023-02-07T01:58:18;7.40;;;5.97;;
13580;SDS011;6861;46.170;7.222;2023-02-07T02:00:46;8.65;;;6.07;;
13580;SDS011;6861;46.170;7.222;2023-02-07T02:03:15;8.60;;;6.05;;
13580;SDS011;6861;46.170;7.222;2023-02-07T02:05:45;6.97;;;6.00;;
13580;SDS011;6861;46.170;7.222;2023-02-07T02:08:14;7.30;;;5.90;;
13580;SDS011;6861;46.170;7.222;2023-02-07T02:13:46;12.15;;;8.45;;
13580;SDS011;6861;46.170;7.222;2023-02-07T02:16:22;8.68;;;6.32;;
13580;SDS011;6861;46.170;7.222;2023-02-07T02:19:04;9.07;;;6.68;;
13580;SDS011;6861;46.170;7.222;2023-02-07T02:22:05;8.50;;;6.43;;
13580;SDS011;6861;46.170;7.222;2023-02-07T02:31:00;9.32;;;6.35;;
13580;SDS011;6861;46.170;7.222;2023-02-07T02:33:42;8.35;;;5.95;;
13580;SDS011;6861;46.170;7.222;2023-02-07T02:36:18;8.10;;;6.13;;
13580;SDS011;6861;46.170;7.222;2023-02-07T02:38:52;7.67;;;5.50;;
13580;SDS011;6861;46.170;7.222;2023-02-07T02:41:30;6.97;;;5.40;;
13580;SDS011;6861;46.170;7.222;2023-02-07T02:44:06;6.53;;;5.03;;
13580;SDS011;6861;46.170;7.222;2023-02-07T02:46:39;6.40;;;5.30;;
13580;SDS011;6861;46.170;7.222;2023-02-07T02:49:10;7.03;;;5.60;;
13580;SDS011;6861;46.170;7.222;2023-02-07T02:51:41;6.87;;;4.93;;
13580;SDS011;6861;46.170;7.222;2023-02-07T02:54:28;6.77;;;5.10;;
13580;SDS011;6861;46.170;7.222;2023-02-07T02:57:10;6.07;;;5.07;;
13580;SDS011;6861;46.170;7.222;2023-02-07T03:00:02;6.95;;;5.10;;
13580;SDS011;6861;46.170;7.222;2023-02-07T03:02:42;5.50;;;4.30;;
13580;SDS011;6861;46.170;7.222;2023-02-07T03:05:23;6.33;;;3.93;;
13580;SDS011;6861;46.170;7.222;2023-02-07T03:08:03;4.35;;;3.55;;
13580;SDS011;6861;46.170;7.222;2023-02-07T03:10:40;5.18;;;3.88;;
13580;SDS011;6861;46.170;7.222;2023-02-07T03:13:16;16.93;;;9.30;;
13580;SDS011;6861;46.170;7.222;2023-02-07T03:15:59;16.53;;;9.93;;
13580;SDS011;6861;46.170;7.222;2023-02-07T03:18:33;6.83;;;5.23;;
13580;SDS011;6861;46.170;7.222;2023-02-07T03:21:13;5.03;;;4.40;;
13580;SDS011;6861;46.170;7.222;2023-02-07T03:23:47;5.85;;;4.03;;
13580;SDS011;6861;46.170;7.222;2023-02-07T03:26:20;3.40;;;3.10;;
13580;SDS011;6861;46.170;7.222;2023-02-07T03:28:51;4.07;;;3.20;;
13580;SDS011;6861;46.170;7.222;2023-02-07T03:31:21;4.20;;;3.23;;
13580;SDS011;6861;46.170;7.222;2023-02-07T03:33:55;3.70;;;2.97;;
13580;SDS011;6861;46.170;7.222;2023-02-07T03:36:32;3.70;;;3.23;;
13580;SDS011;6861;46.170;7.222;2023-02-07T03:39:06;4.37;;;3.10;;
13580;SDS011;6861;46.170;7.222;2023-02-07T03:41:37;3.27;;;2.90;;
13580;SDS011;6861;46.170;7.222;2023-02-07T03:44:10;4.30;;;3.10;;
13580;SDS011;6861;46.170;7.222;2023-02-07T03:46:41;3.60;;;2.67;;
13580;SDS011;6861;46.170;7.222;2023-02-07T03:49:09;5.30;;;3.00;;
13580;SDS011;6861;46.170;7.222;2023-02-07T03:51:41;3.43;;;2.70;;
13580;SDS011;6861;46.170;7.222;2023-02-07T03:54:09;3.37;;;2.60;;
13580;SDS011;6861;46.170;7.222;2023-02-07T03:56:37;3.73;;;2.70;;
13580;SDS011;6861;46.170;7.222;2023-02-07T03:59:06;3.13;;;2.37;;
13580;SDS011;6861;46.170;7.222;2023-02-07T04:01:34;2.75;;;2.25;;
13580;SDS011;6861;46.170;7.222;2023-02-07T04:04:07;3.40;;;2.53;;
13580;SDS011;6861;46.170;7.222;2023-02-07T04:06:35;3.53;;;2.30;;
13580;SDS011;6861;46.170;7.222;2023-02-07T04:09:05;3.03;;;2.50;;
13580;SDS011;6861;46.170;7.222;2023-02-07T04:11:36;3.53;;;2.23;;
13580;SDS011;6861;46.170;7.222;2023-02-07T04:14:05;2.22;;;1.70;;
13580;SDS011;6861;46.170;7.222;2023-02-07T04:16:32;3.73;;;2.63;;
13580;SDS011;6861;46.170;7.222;2023-02-07T04:19:01;5.17;;;2.20;;
13580;SDS011;6861;46.170;7.222;2023-02-07T04:21:29;4.47;;;2.57;;
13580;SDS011;6861;46.170;7.222;2023-02-07T04:23:57;4.73;;;2.17;;
13580;SDS011;6861;46.170;7.222;2023-02-07T04:26:26;4.07;;;2.20;;
13580;SDS011;6861;46.170;7.222;2023-02-07T04:28:54;3.87;;;2.30;;
13580;SDS011;6861;46.170;7.222;2023-02-07T04:31:22;2.10;;;1.70;;
13580;SDS011;6861;46.170;7.222;2023-02-07T04:33:50;2.60;;;1.67;;
13580;SDS011;6861;46.170;7.222;2023-02-07T04:36:18;2.80;;;2.40;;
13580;SDS011;6861;46.170;7.222;2023-02-07T04:38:48;2.73;;;2.10;;
13580;SDS011;6861;46.170;7.222;2023-02-07T04:41:16;3.40;;;1.43;;
13580;SDS011;6861;46.170;7.222;2023-02-07T04:43:45;2.47;;;2.17;;
13580;SDS011;6861;46.170;7.222;2023-02-07T04:46:13;2.23;;;1.83;;
13580;SDS011;6861;46.170;7.222;2023-02-07T04:48:41;2.20;;;1.50;;
13580;SDS011;6861;46.170;7.222;2023-02-07T04:51:09;1.73;;;1.63;;
13580;SDS011;6861;46.170;7.222;2023-02-07T04:53:38;2.30;;;1.70;;
13580;SDS011;6861;46.170;7.222;2023-02-07T04:56:06;2.97;;;2.00;;
13580;SDS011;6861;46.170;7.222;2023-02-07T04:58:34;2.93;;;2.07;;
13580;SDS011;6861;46.170;7.222;2023-02-07T05:01:04;2.53;;;1.30;;
13580;SDS011;6861;46.170;7.222;2023-02-07T05:03:32;1.63;;;1.40;;
13580;SDS011;6861;46.170;7.222;2023-02-07T05:06:00;1.80;;;1.10;;
13580;SDS011;6861;46.170;7.222;2023-02-07T05:08:28;1.23;;;1.10;;
13580;SDS011;6861;46.170;7.222;2023-02-07T05:10:56;3.10;;;1.80;;
13580;SDS011;6861;46.170;7.222;2023-02-07T05:13:25;1.90;;;1.50;;
13580;SDS011;6861;46.170;7.222;2023-02-07T05:15:53;3.20;;;1.20;;
13580;SDS011;6861;46.170;7.222;2023-02-07T05:18:22;2.47;;;1.80;;
13580;SDS011;6861;46.170;7.222;2023-02-07T05:20:51;2.07;;;1.57;;
13580;SDS011;6861;46.170;7.222;2023-02-07T05:23:20;1.53;;;1.40;;
13580;SDS011;6861;46.170;7.222;2023-02-07T05:25:48;2.67;;;1.90;;
13580;SDS011;6861;46.170;7.222;2023-02-07T05:28:16;1.77;;;1.40;;
13580;SDS011;6861;46.170;7.222;2023-02-07T05:30:44;2.23;;;1.43;;
13580;SDS011;6861;46.170;7.222;2023-02-07T05:33:13;1.37;;;1.27;;
13580;SDS011;6861;46.170;7.222;2023-02-07T05:35:42;2.10;;;1.53;;
13580;SDS011;6861;46.170;7.222;2023-02-07T05:38:11;2.33;;;1.63;;
13580;SDS011;6861;46.170;7.222;2023-02-07T05:40:41;1.90;;;1.53;;
13580;SDS011;6861;46.170;7.222;2023-02-07T05:43:09;1.70;;;1.57;;
13580;SDS011;6861;46.170;7.222;2023-02-07T05:45:39;2.17;;;1.93;;
13580;SDS011;6861;46.170;7.222;2023-02-07T05:48:07;1.77;;;1.47;;
13580;SDS011;6861;46.170;7.222;2023-02-07T05:50:35;2.83;;;2.07;;
13580;SDS011;6861;46.170;7.222;2023-02-07T05:53:05;1.93;;;1.53;;
13580;SDS011;6861;46.170;7.222;2023-02-07T05:55:33;1.30;;;1.20;;
13580;SDS011;6861;46.170;7.222;2023-02-07T05:58:03;1.60;;;1.50;;
13580;SDS011;6861;46.170;7.222;2023-02-07T06:00:31;2.03;;;1.50;;
13580;SDS011;6861;46.170;7.222;2023-02-07T06:02:59;1.60;;;1.30;;
13580;SDS011;6861;46.170;7.222;2023-02-07T06:05:27;1.50;;;1.27;;
13580;SDS011;6861;46.170;7.222;2023-02-07T06:08:00;2.70;;;1.50;;
13580;SDS011;6861;46.170;7.222;2023-02-07T06:10:30;2.33;;;1.50;;
13580;SDS011;6861;46.170;7.222;2023-02-07T06:12:58;3.23;;;1.47;;
13580;SDS011;6861;46.170;7.222;2023-02-07T06:15:26;1.57;;;1.30;;
13580;SDS011;6861;46.170;7.222;2023-02-07T06:17:54;2.27;;;1.43;;
13580;SDS011;6861;46.170;7.222;2023-02-07T06:20:22;3.30;;;1.67;;
13580;SDS011;6861;46.170;7.222;2023-02-07T06:22:50;1.93;;;1.63;;
13580;SDS011;6861;46.170;7.222;2023-02-07T06:25:18;2.73;;;1.60;;
13580;SDS011;6861;46.170;7.222;2023-02-07T06:27:48;2.27;;;1.70;;
13580;SDS011;6861;46.170;7.222;2023-02-07T06:30:16;1.97;;;1.40;;
13580;SDS011;6861;46.170;7.222;2023-02-07T06:32:45;9.23;;;1.47;;
13580;SDS011;6861;46.170;7.222;2023-02-07T06:35:13;1.40;;;1.17;;
13580;SDS011;6861;46.170;7.222;2023-02-07T06:37:41;2.20;;;1.40;;
13580;SDS011;6861;46.170;7.222;2023-02-07T06:40:09;2.40;;;1.60;;
13580;SDS011;6861;46.170;7.222;2023-02-07T06:42:38;4.80;;;1.30;;
13580;SDS011;6861;46.170;7.222;2023-02-07T06:45:08;2.30;;;1.67;;
13580;SDS011;6861;46.170;7.222;2023-02-07T06:47:36;3.73;;;1.40;;
13580;SDS011;6861;46.170;7.222;2023-02-07T06:50:04;1.93;;;1.40;;
13580;SDS011;6861;46.170;7.222;2023-02-07T06:52:34;1.60;;;1.40;;
13580;SDS011;6861;46.170;7.222;2023-02-07T06:55:02;0.93;;;0.77;;
13580;SDS011;6861;46.170;7.222;2023-02-07T06:57:31;4.30;;;2.30;;
13580;SDS011;6861;46.170;7.222;2023-02-07T06:59:59;2.33;;;1.60;;
13580;SDS011;6861;46.170;7.222;2023-02-07T07:02:28;1.67;;;1.23;;
13580;SDS011;6861;46.170;7.222;2023-02-07T07:04:56;1.50;;;1.03;;
13580;SDS011;6861;46.170;7.222;2023-02-07T07:07:24;2.53;;;1.50;;
13580;SDS011;6861;46.170;7.222;2023-02-07T07:09:52;2.10;;;1.27;;
13580;SDS011;6861;46.170;7.222;2023-02-07T07:12:20;1.73;;;1.30;;
13580;SDS011;6861;46.170;7.222;2023-02-07T07:14:48;2.13;;;1.20;;
13580;SDS011;6861;46.170;7.222;2023-02-07T07:17:16;1.40;;;1.20;;
13580;SDS011;6861;46.170;7.222;2023-02-07T07:19:46;1.87;;;0.80;;
13580;SDS011;6861;46.170;7.222;2023-02-07T07:22:14;3.73;;;1.40;;
13580;SDS011;6861;46.170;7.222;2023-02-07T07:24:43;1.50;;;1.10;;
13580;SDS011;6861;46.170;7.222;2023-02-07T07:27:11;1.73;;;1.23;;
13580;SDS011;6861;46.170;7.222;2023-02-07T07:29:39;1.20;;;1.10;;
13580;SDS011;6861;46.170;7.222;2023-02-07T07:32:07;1.87;;;1.30;;
13580;SDS011;6861;46.170;7.222;2023-02-07T07:34:46;1.60;;;1.30;;
13580;SDS011;6861;46.170;7.222;2023-02-07T07:37:15;1.33;;;1.10;;
13580;SDS011;6861;46.170;7.222;2023-02-07T07:39:43;2.93;;;1.23;;
13580;SDS011;6861;46.170;7.222;2023-02-07T07:42:11;3.13;;;1.90;;
13580;SDS011;6861;46.170;7.222;2023-02-07T07:44:39;2.20;;;1.20;;
13580;SDS011;6861;46.170;7.222;2023-02-07T07:47:07;1.63;;;1.30;;
13580;SDS011;6861;46.170;7.222;2023-02-07T07:49:35;3.80;;;2.50;;
13580;SDS011;6861;46.170;7.222;2023-02-07T07:52:05;3.07;;;1.57;;
13580;SDS011;6861;46.170;7.222;2023-02-07T07:54:33;5.73;;;2.47;;
13580;SDS011;6861;46.170;7.222;2023-02-07T07:57:01;5.47;;;2.00;;
13580;SDS011;6861;46.170;7.222;2023-02-07T07:59:29;2.50;;;1.70;;
13580;SDS011;6861;46.170;7.222;2023-02-07T08:01:57;1.60;;;1.20;;
13580;SDS011;6861;46.170;7.222;2023-02-07T08:04:25;1.93;;;1.30;;
13580;SDS011;6861;46.170;7.222;2023-02-07T08:06:53;2.17;;;1.43;;
13580;SDS011;6861;46.170;7.222;2023-02-07T08:09:22;6.77;;;2.30;;
13580;SDS011;6861;46.170;7.222;2023-02-07T08:11:50;1.43;;;1.00;;
13580;SDS011;6861;46.170;7.222;2023-02-07T08:14:18;2.37;;;1.30;;
13580;SDS011;6861;46.170;7.222;2023-02-07T08:16:46;1.57;;;1.33;;
13580;SDS011;6861;46.170;7.222;2023-02-07T08:19:14;0.90;;;0.80;;
13580;SDS011;6861;46.170;7.222;2023-02-07T08:21:42;1.50;;;1.10;;
13580;SDS011;6861;46.170;7.222;2023-02-07T08:24:10;2.80;;;1.40;;
13580;SDS011;6861;46.170;7.222;2023-02-07T08:26:40;1.30;;;1.20;;
13580;SDS011;6861;46.170;7.222;2023-02-07T08:29:08;2.07;;;1.37;;
13580;SDS011;6861;46.170;7.222;2023-02-07T08:31:36;1.50;;;1.20;;
13580;SDS011;6861;46.170;7.222;2023-02-07T08:34:05;1.60;;;1.10;;
13580;SDS011;6861;46.170;7.222;2023-02-07T08:36:33;2.43;;;1.50;;
13580;SDS011;6861;46.170;7.222;2023-02-07T08:39:01;2.43;;;1.27;;
13580;SDS011;6861;46.170;7.222;2023-02-07T08:41:31;6.23;;;2.50;;
13580;SDS011;6861;46.170;7.222;2023-02-07T08:44:01;6.23;;;3.03;;
13580;SDS011;6861;46.170;7.222;2023-02-07T08:46:29;4.03;;;1.70;;
13580;SDS011;6861;46.170;7.222;2023-02-07T08:48:57;9.07;;;3.10;;
13580;SDS011;6861;46.170;7.222;2023-02-07T08:51:25;6.03;;;3.00;;
13580;SDS011;6861;46.170;7.222;2023-02-07T08:53:54;6.07;;;2.80;;
13580;SDS011;6861;46.170;7.222;2023-02-07T08:56:22;2.87;;;2.10;;
13580;SDS011;6861;46.170;7.222;2023-02-07T08:58:50;3.07;;;1.60;;
13580;SDS011;6861;46.170;7.222;2023-02-07T09:01:19;1.90;;;1.47;;
13580;SDS011;6861;46.170;7.222;2023-02-07T09:03:47;6.63;;;3.37;;
13580;SDS011;6861;46.170;7.222;2023-02-07T09:06:15;9.33;;;3.83;;
13580;SDS011;6861;46.170;7.222;2023-02-07T09:08:43;6.73;;;2.97;;
13580;SDS011;6861;46.170;7.222;2023-02-07T09:11:11;3.40;;;2.97;;
13580;SDS011;6861;46.170;7.222;2023-02-07T09:13:40;2.07;;;1.47;;
13580;SDS011;6861;46.170;7.222;2023-02-07T09:16:11;3.37;;;1.47;;
13580;SDS011;6861;46.170;7.222;2023-02-07T09:18:41;4.43;;;2.90;;
13580;SDS011;6861;46.170;7.222;2023-02-07T09:21:09;10.73;;;3.20;;
13580;SDS011;6861;46.170;7.222;2023-02-07T09:23:37;5.53;;;2.50;;
13580;SDS011;6861;46.170;7.222;2023-02-07T09:26:06;3.20;;;2.20;;
13580;SDS011;6861;46.170;7.222;2023-02-07T09:28:35;4.60;;;2.40;;
13580;SDS011;6861;46.170;7.222;2023-02-07T09:31:07;5.30;;;2.20;;
13580;SDS011;6861;46.170;7.222;2023-02-07T09:33:36;4.87;;;2.50;;
13580;SDS011;6861;46.170;7.222;2023-02-07T09:36:06;3.70;;;1.70;;
13580;SDS011;6861;46.170;7.222;2023-02-07T09:38:45;1.30;;;1.00;;
13580;SDS011;6861;46.170;7.222;2023-02-07T09:41:16;1.17;;;1.00;;
13580;SDS011;6861;46.170;7.222;2023-02-07T09:43:52;1.53;;;0.93;;
13580;SDS011;6861;46.170;7.222;2023-02-07T09:46:28;2.93;;;1.43;;
13580;SDS011;6861;46.170;7.222;2023-02-07T09:49:02;1.70;;;1.00;;
13580;SDS011;6861;46.170;7.222;2023-02-07T09:51:35;2.50;;;1.23;;
13580;SDS011;6861;46.170;7.222;2023-02-07T09:54:05;2.43;;;1.20;;
13580;SDS011;6861;46.170;7.222;2023-02-07T09:56:40;1.90;;;1.20;;
13580;SDS011;6861;46.170;7.222;2023-02-07T09:59:13;2.17;;;1.00;;
13580;SDS011;6861;46.170;7.222;2023-02-07T10:01:48;2.43;;;1.30;;
13580;SDS011;6861;46.170;7.222;2023-02-07T10:04:26;1.53;;;1.03;;
13580;SDS011;6861;46.170;7.222;2023-02-07T10:06:57;2.27;;;1.20;;
13580;SDS011;6861;46.170;7.222;2023-02-07T10:09:27;2.10;;;1.00;;
13580;SDS011;6861;46.170;7.222;2023-02-07T10:11:59;1.93;;;1.10;;
13580;SDS011;6861;46.170;7.222;2023-02-07T10:14:41;1.87;;;1.30;;
13580;SDS011;6861;46.170;7.222;2023-02-07T10:17:32;1.53;;;1.00;;
13580;SDS011;6861;46.170;7.222;2023-02-07T10:20:18;2.17;;;0.97;;
13580;SDS011;6861;46.170;7.222;2023-02-07T10:23:00;4.53;;;1.17;;
13580;SDS011;6861;46.170;7.222;2023-02-07T10:25:40;1.30;;;1.00;;
13580;SDS011;6861;46.170;7.222;2023-02-07T10:28:25;2.37;;;1.10;;
13580;SDS011;6861;46.170;7.222;2023-02-07T10:31:09;1.77;;;0.97;;
13580;SDS011;6861;46.170;7.222;2023-02-07T10:33:45;1.40;;;1.00;;
13580;SDS011;6861;46.170;7.222;2023-02-07T10:36:15;1.63;;;0.97;;
13580;SDS011;6861;46.170;7.222;2023-02-07T10:38:48;2.80;;;1.03;;
13580;SDS011;6861;46.170;7.222;2023-02-07T10:41:34;1.80;;;0.90;;
13580;SDS011;6861;46.170;7.222;2023-02-07T10:44:04;2.73;;;1.10;;
13580;SDS011;6861;46.170;7.222;2023-02-07T10:46:33;1.47;;;0.90;;
13580;SDS011;6861;46.170;7.222;2023-02-07T10:49:02;1.70;;;1.00;;
13580;SDS011;6861;46.170;7.222;2023-02-07T10:51:32;1.97;;;1.20;;
13580;SDS011;6861;46.170;7.222;2023-02-07T10:54:04;1.50;;;1.10;;
13580;SDS011;6861;46.170;7.222;2023-02-07T10:56:35;1.63;;;1.10;;
13580;SDS011;6861;46.170;7.222;2023-02-07T11:05:28;1.50;;;1.08;;
13580;SDS011;6861;46.170;7.222;2023-02-07T11:08:21;2.58;;;1.00;;
13580;SDS011;6861;46.170;7.222;2023-02-07T11:10:53;2.38;;;1.20;;
13580;SDS011;6861;46.170;7.222;2023-02-07T11:13:23;1.17;;;1.08;;
13580;SDS011;6861;46.170;7.222;2023-02-07T11:15:55;1.42;;;1.15;;
13580;SDS011;6861;46.170;7.222;2023-02-07T11:18:33;1.55;;;1.02;;
13580;SDS011;6861;46.170;7.222;2023-02-07T11:21:21;2.85;;;1.58;;
13580;SDS011;6861;46.170;7.222;2023-02-07T11:23:53;1.80;;;1.30;;
13580;SDS011;6861;46.170;7.222;2023-02-07T11:26:26;2.42;;;1.27;;
13580;SDS011;6861;46.170;7.222;2023-02-07T11:29:00;3.15;;;1.38;;
13580;SDS011;6861;46.170;7.222;2023-02-07T11:31:33;1.95;;;1.35;;
13580;SDS011;6861;46.170;7.222;2023-02-07T11:34:07;1.35;;;1.13;;
13580;SDS011;6861;46.170;7.222;2023-02-07T11:36:37;3.80;;;1.20;;
13580;SDS011;6861;46.170;7.222;2023-02-07T11:39:12;1.77;;;1.00;;
13580;SDS011;6861;46.170;7.222;2023-02-07T11:41:51;6.32;;;1.30;;
13580;SDS011;6861;46.170;7.222;2023-02-07T11:44:22;1.63;;;1.13;;
13580;SDS011;6861;46.170;7.222;2023-02-07T11:46:55;2.28;;;0.90;;
13580;SDS011;6861;46.170;7.222;2023-02-07T11:49:40;2.25;;;1.48;;
13580;SDS011;6861;46.170;7.222;2023-02-07T11:52:11;1.80;;;1.33;;
13580;SDS011;6861;46.170;7.222;2023-02-07T11:54:40;4.18;;;1.52;;
13580;SDS011;6861;46.170;7.222;2023-02-07T11:57:16;2.65;;;1.38;;
13580;SDS011;6861;46.170;7.222;2023-02-07T11:59:48;2.13;;;1.60;;
13580;SDS011;6861;46.170;7.222;2023-02-07T12:02:21;1.95;;;1.58;;
13580;SDS011;6861;46.170;7.222;2023-02-07T12:04:51;1.95;;;1.33;;
13580;SDS011;6861;46.170;7.222;2023-02-07T12:07:22;3.60;;;1.40;;
13580;SDS011;6861;46.170;7.222;2023-02-07T12:09:56;2.10;;;1.30;;
13580;SDS011;6861;46.170;7.222;2023-02-07T12:12:35;3.53;;;1.25;;
13580;SDS011;6861;46.170;7.222;2023-02-07T12:15:11;1.83;;;1.42;;
13580;SDS011;6861;46.170;7.222;2023-02-07T12:17:45;2.22;;;1.35;;
13580;SDS011;6861;46.170;7.222;2023-02-07T12:20:21;3.67;;;1.25;;
13580;SDS011;6861;46.170;7.222;2023-02-07T12:22:54;2.35;;;1.10;;
13580;SDS011;6861;46.170;7.222;2023-02-07T12:25:48;1.42;;;1.10;;
13580;SDS011;6861;46.170;7.222;2023-02-07T12:28:24;3.42;;;1.10;;
13580;SDS011;6861;46.170;7.222;2023-02-07T12:30:58;1.38;;;1.15;;
13580;SDS011;6861;46.170;7.222;2023-02-07T12:33:35;3.00;;;1.33;;
13580;SDS011;6861;46.170;7.222;2023-02-07T12:36:11;7.43;;;1.38;;
13580;SDS011;6861;46.170;7.222;2023-02-07T12:38:43;4.05;;;1.35;;
13580;SDS011;6861;46.170;7.222;2023-02-07T12:41:15;2.38;;;1.40;;
13580;SDS011;6861;46.170;7.222;2023-02-07T12:43:52;2.15;;;1.40;;
13580;SDS011;6861;46.170;7.222;2023-02-07T12:46:34;1.17;;;1.00;;
13580;SDS011;6861;46.170;7.222;2023-02-07T12:49:17;1.73;;;1.27;;
13580;SDS011;6861;46.170;7.222;2023-02-07T12:51:56;2.33;;;1.10;;
13580;SDS011;6861;46.170;7.222;2023-02-07T12:54:42;1.63;;;1.00;;
13580;SDS011;6861;46.170;7.222;2023-02-07T12:57:24;2.50;;;1.05;;
13580;SDS011;6861;46.170;7.222;2023-02-07T13:00:03;1.40;;;1.00;;
13580;SDS011;6861;46.170;7.222;2023-02-07T13:02:39;1.98;;;1.08;;
13580;SDS011;6861;46.170;7.222;2023-02-07T13:05:37;1.23;;;0.90;;
13580;SDS011;6861;46.170;7.222;2023-02-07T13:08:20;1.52;;;0.93;;
13580;SDS011;6861;46.170;7.222;2023-02-07T13:10:59;1.73;;;0.90;;
13580;SDS011;6861;46.170;7.222;2023-02-07T13:13:39;1.92;;;1.00;;
13580;SDS011;6861;46.170;7.222;2023-02-07T13:16:18;1.45;;;0.90;;
13580;SDS011;6861;46.170;7.222;2023-02-07T13:18:53;1.30;;;0.80;;
13580;SDS011;6861;46.170;7.222;2023-02-07T13:21:27;2.42;;;0.80;;
13580;SDS011;6861;46.170;7.222;2023-02-07T13:24:06;1.50;;;0.90;;
13580;SDS011;6861;46.170;7.222;2023-02-07T13:26:37;0.82;;;0.70;;
13580;SDS011;6861;46.170;7.222;2023-02-07T13:29:10;4.63;;;0.90;;
13580;SDS011;6861;46.170;7.222;2023-02-07T13:31:43;1.15;;;0.75;;
13580;SDS011;6861;46.170;7.222;2023-02-07T13:34:15;0.70;;;0.65;;
13580;SDS011;6861;46.170;7.222;2023-02-07T13:36:46;1.55;;;1.00;;
13580;SDS011;6861;46.170;7.222;2023-02-07T13:39:24;0.80;;;0.77;;
13580;SDS011;6861;46.170;7.222;2023-02-07T13:42:11;0.98;;;0.85;;
13580;SDS011;6861;46.170;7.222;2023-02-07T13:44:47;1.88;;;0.90;;
13580;SDS011;6861;46.170;7.222;2023-02-07T13:53:16;2.45;;;1.00;;
13580;SDS011;6861;46.170;7.222;2023-02-07T13:55:58;1.25;;;0.85;;
13580;SDS011;6861;46.170;7.222;2023-02-07T14:01:35;3.25;;;1.05;;
13580;SDS011;6861;46.170;7.222;2023-02-07T14:04:05;3.40;;;1.05;;
13580;SDS011;6861;46.170;7.222;2023-02-07T14:06:36;1.52;;;0.95;;
13580;SDS011;6861;46.170;7.222;2023-02-07T14:09:08;1.80;;;0.90;;
13580;SDS011;6861;46.170;7.222;2023-02-07T14:11:44;1.90;;;1.10;;
13580;SDS011;6861;46.170;7.222;2023-02-07T14:14:15;3.28;;;0.80;;
13580;SDS011;6861;46.170;7.222;2023-02-07T14:16:51;2.17;;;0.90;;
13580;SDS011;6861;46.170;7.222;2023-02-07T14:22:18;4.00;;;1.27;;
13580;SDS011;6861;46.170;7.222;2023-02-07T14:36:41;1.30;;;0.95;;
13580;SDS011;6861;46.170;7.222;2023-02-07T14:39:23;1.20;;;0.90;;
13580;SDS011;6861;46.170;7.222;2023-02-07T14:42:00;1.85;;;0.98;;
13580;SDS011;6861;46.170;7.222;2023-02-07T14:44:38;1.85;;;0.80;;
13580;SDS011;6861;46.170;7.222;2023-02-07T14:47:08;1.75;;;0.90;;
13580;SDS011;6861;46.170;7.222;2023-02-07T14:49:48;1.23;;;0.80;;
13580;SDS011;6861;46.170;7.222;2023-02-07T14:52:21;1.65;;;0.90;;
13580;SDS011;6861;46.170;7.222;2023-02-07T14:54:53;0.98;;;0.80;;
13580;SDS011;6861;46.170;7.222;2023-02-07T14:57:25;2.47;;;1.00;;
13580;SDS011;6861;46.170;7.222;2023-02-07T15:00:02;1.45;;;0.93;;
13580;SDS011;6861;46.170;7.222;2023-02-07T15:02:41;4.45;;;0.90;;
13580;SDS011;6861;46.170;7.222;2023-02-07T15:05:15;4.00;;;2.53;;
13580;SDS011;6861;46.170;7.222;2023-02-07T15:07:53;5.18;;;3.28;;
13580;SDS011;6861;46.170;7.222;2023-02-07T15:10:23;7.00;;;4.00;;
13580;SDS011;6861;46.170;7.222;2023-02-07T15:12:53;4.78;;;3.80;;
13580;SDS011;6861;46.170;7.222;2023-02-07T15:15:23;7.68;;;4.43;;
13580;SDS011;6861;46.170;7.222;2023-02-07T15:17:54;6.50;;;4.65;;
13580;SDS011;6861;46.170;7.222;2023-02-07T15:20:25;8.32;;;4.78;;
13580;SDS011;6861;46.170;7.222;2023-02-07T15:22:58;6.25;;;4.88;;
13580;SDS011;6861;46.170;7.222;2023-02-07T15:25:28;7.25;;;5.00;;
13580;SDS011;6861;46.170;7.222;2023-02-07T15:27:59;7.35;;;4.88;;
13580;SDS011;6861;46.170;7.222;2023-02-07T15:30:32;9.23;;;4.90;;
13580;SDS011;6861;46.170;7.222;2023-02-07T15:33:00;10.88;;;5.45;;
13580;SDS011;6861;46.170;7.222;2023-02-07T15:35:28;7.90;;;5.25;;
13580;SDS011;6861;46.170;7.222;2023-02-07T15:38:16;8.40;;;5.00;;
13580;SDS011;6861;46.170;7.222;2023-02-07T15:40:47;8.75;;;5.10;;
13580;SDS011;6861;46.170;7.222;2023-02-07T15:46:03;8.38;;;5.85;;
13580;SDS011;6861;46.170;7.222;2023-02-07T15:48:43;8.02;;;6.55;;
13580;SDS011;6861;46.170;7.222;2023-02-07T15:51:12;8.63;;;5.95;;
13580;SDS011;6861;46.170;7.222;2023-02-07T15:53:46;7.80;;;6.25;;
13580;SDS011;6861;46.170;7.222;2023-02-07T15:56:17;6.60;;;5.50;;
13580;SDS011;6861;46.170;7.222;2023-02-07T15:58:48;12.45;;;8.07;;
13580;SDS011;6861;46.170;7.222;2023-02-07T16:01:20;9.55;;;6.15;;
13580;SDS011;6861;46.170;7.222;2023-02-07T16:03:50;13.60;;;7.18;;
13580;SDS011;6861;46.170;7.222;2023-02-07T16:06:22;8.30;;;6.38;;
13580;SDS011;6861;46.170;7.222;2023-02-07T16:08:54;10.73;;;7.00;;
13580;SDS011;6861;46.170;7.222;2023-02-07T16:11:37;9.10;;;6.28;;